createdAt,value
2018-07-20T00:01:21.101Z,99698.63
2018-07-20T00:03:51.317Z,99695.58
2018-07-20T00:06:22.657Z,99701.77
2018-07-20T00:08:52.885Z,99699.11
2018-07-20T00:11:22.991Z,99697.28
2018-07-20T00:13:53.400Z,99696.21
2018-07-20T00:16:23.540Z,99695.47
2018-07-20T00:18:54.794Z,99692.05
2018-07-20T00:21:24.837Z,99697.03
2018-07-20T00:23:54.966Z,99694.61
2018-07-20T00:26:25.138Z,99693.12
2018-07-20T00:28:55.434Z,99693.23
2018-07-20T00:31:25.541Z,99687.75
2018-07-20T00:33:55.816Z,99686.15
2018-07-20T00:36:26.021Z,99680.69
2018-07-20T00:38:58.212Z,99684.44
2018-07-20T00:41:29.370Z,99686.84
2018-07-20T00:43:59.495Z,99683.43
2018-07-20T00:46:29.655Z,99680.13
2018-07-20T00:49:00.723Z,99680.23
2018-07-20T00:51:30.732Z,99672.11
2018-07-20T00:54:00.787Z,99682.78
2018-07-20T00:56:31.438Z,99677.30
2018-07-20T00:59:01.492Z,99682.36
2018-07-20T01:01:31.730Z,99678.95
2018-07-20T01:04:01.950Z,99679.55
2018-07-20T01:06:32.341Z,99676.20
2018-07-20T01:09:02.630Z,99679.97
2018-07-20T01:11:32.630Z,99680.08
2018-07-20T01:14:02.662Z,99678.00
2018-07-20T01:16:32.734Z,99674.96
2018-07-20T01:19:02.895Z,99674.80
2018-07-20T01:21:32.929Z,99682.44
2018-07-20T01:24:03.268Z,99679.98
2018-07-20T01:26:33.416Z,99675.38
2018-07-20T01:29:03.530Z,99675.96
2018-07-20T01:31:33.711Z,99674.25
2018-07-20T01:34:03.740Z,99675.91
2018-07-20T01:36:33.781Z,99680.02
2018-07-20T01:39:05.421Z,99681.83
2018-07-20T01:41:36.794Z,99678.79
2018-07-20T01:44:07.147Z,99683.00
2018-07-20T01:46:37.315Z,99675.83
2018-07-20T01:49:08.096Z,99674.71
2018-07-20T01:51:38.267Z,99678.92
2018-07-20T01:54:08.639Z,99673.05
2018-07-20T01:56:38.657Z,99672.92
2018-07-20T01:59:08.777Z,99674.84
2018-07-20T02:01:39.233Z,99671.05
2018-07-20T02:04:09.439Z,99675.05
2018-07-20T02:06:39.534Z,99674.30
2018-07-20T02:09:11.561Z,99674.30
2018-07-20T02:11:41.853Z,99679.63
2018-07-20T02:14:11.973Z,99670.98
2018-07-20T02:16:42.316Z,99672.80
2018-07-20T02:19:12.447Z,99680.80
2018-07-20T02:21:42.538Z,99677.28
2018-07-20T02:24:12.670Z,99678.23
2018-07-20T02:26:42.786Z,99680.53
2018-07-20T02:29:12.970Z,99677.45
2018-07-20T02:31:43.230Z,99677.12
2018-07-20T02:34:13.292Z,99681.56
2018-07-20T02:36:43.373Z,99681.02
2018-07-20T02:39:14.543Z,99687.60
2018-07-20T02:41:44.826Z,99686.00
2018-07-20T02:44:15.056Z,99685.75
2018-07-20T02:46:45.208Z,99681.48
2018-07-20T02:49:15.185Z,99674.04
2018-07-20T02:51:45.412Z,99679.37
2018-07-20T02:54:15.452Z,99680.91
2018-07-20T02:56:45.588Z,99676.53
2018-07-20T02:59:15.785Z,99674.44
2018-07-20T03:01:45.853Z,99677.31
2018-07-20T03:04:15.992Z,99678.27
2018-07-20T03:06:46.374Z,99682.36
2018-07-20T03:09:16.541Z,99680.41
2018-07-20T03:11:46.704Z,99681.27
2018-07-20T03:14:16.893Z,99681.46
2018-07-20T03:16:47.156Z,99692.52
2018-07-20T03:19:19.139Z,99686.53
2018-07-20T03:21:49.373Z,99691.23
2018-07-20T03:24:19.637Z,99696.28
2018-07-20T03:26:49.801Z,99693.81
2018-07-20T03:29:20.001Z,99694.58
2018-07-20T03:31:50.221Z,99694.58
2018-07-20T03:34:20.366Z,99695.80
2018-07-20T03:36:50.669Z,99691.72
2018-07-20T03:39:20.960Z,99697.80
2018-07-20T03:41:51.127Z,99698.52
2018-07-20T03:44:21.466Z,99685.38
2018-07-20T03:46:51.529Z,99686.61
2018-07-20T03:49:22.726Z,99686.21
2018-07-20T03:51:53.235Z,99692.34
2018-07-20T03:54:23.457Z,99692.13
2018-07-20T03:56:53.552Z,99695.73
2018-07-20T03:59:23.735Z,99693.27
2018-07-20T04:01:54.164Z,99694.16
2018-07-20T04:04:24.331Z,99692.42
2018-07-20T04:06:54.560Z,99698.44
2018-07-20T04:09:24.600Z,99696.01
2018-07-20T04:11:54.593Z,99698.88
2018-07-20T04:14:24.839Z,99699.92
2018-07-20T04:16:54.926Z,99688.84
2018-07-20T04:19:24.956Z,99688.42
2018-07-20T04:21:55.070Z,99687.59
2018-07-20T04:24:25.378Z,99695.54
2018-07-20T04:26:55.531Z,99688.18
2018-07-20T04:29:25.960Z,99698.16
2018-07-20T04:31:56.180Z,99692.36
2018-07-20T04:34:26.356Z,99691.08
2018-07-20T04:36:57.354Z,99691.13
2018-07-20T04:39:27.583Z,99692.03
2018-07-20T04:41:57.693Z,99702.38
2018-07-20T04:44:27.999Z,99703.39
2018-07-20T04:46:58.438Z,99696.47
2018-07-20T04:49:28.411Z,99699.77
2018-07-20T04:51:58.688Z,99690.10
2018-07-20T04:54:28.827Z,99698.86
2018-07-20T04:56:59.018Z,99699.97
2018-07-20T04:59:29.278Z,99699.97
2018-07-20T05:01:59.544Z,99704.72
2018-07-20T05:04:29.543Z,99691.38
2018-07-20T05:06:59.713Z,99696.71
2018-07-20T05:09:29.855Z,99698.42
2018-07-20T05:12:00.048Z,99692.70
2018-07-20T05:14:30.078Z,99689.55
2018-07-20T05:17:00.295Z,99691.00
2018-07-20T05:19:30.607Z,99686.41
2018-07-20T05:22:00.780Z,99688.33
2018-07-20T05:24:31.050Z,99690.14
2018-07-20T05:27:01.361Z,99682.88
2018-07-20T05:29:31.522Z,99683.37
2018-07-20T05:32:01.673Z,99688.75
2018-07-20T05:34:32.062Z,99686.83
2018-07-20T05:37:02.242Z,99681.67
2018-07-20T05:39:32.398Z,99685.23
2018-07-20T05:42:02.428Z,99685.52
2018-07-20T05:44:32.664Z,99690.27
2018-07-20T05:47:02.871Z,99692.48
2018-07-20T05:49:32.967Z,99688.35
2018-07-20T05:52:03.313Z,99692.67
2018-07-20T05:54:34.558Z,99687.23
2018-07-20T05:57:04.679Z,99685.89
2018-07-20T06:06:34.246Z,99682.64
2018-07-20T06:09:04.396Z,99681.94
2018-07-20T06:11:34.661Z,99695.03
2018-07-20T06:14:04.454Z,99694.08
2018-07-20T06:16:35.798Z,99684.95
2018-07-20T06:19:06.007Z,99689.09
2018-07-20T06:21:36.312Z,99695.77
2018-07-20T06:24:06.415Z,99694.80
2018-07-20T06:26:36.600Z,99688.64
2018-07-20T06:29:06.781Z,99687.02
2018-07-20T06:31:36.903Z,99689.46
2018-07-20T06:34:08.123Z,99685.05
2018-07-20T06:36:38.536Z,99687.59
2018-07-20T06:39:12.539Z,99675.50
2018-07-20T06:41:42.737Z,99683.49
2018-07-20T06:44:12.820Z,99681.05
2018-07-20T06:46:42.977Z,99671.78
2018-07-20T06:49:13.504Z,99684.64
2018-07-20T06:51:43.719Z,99683.28
2018-07-20T06:54:13.841Z,99680.56
2018-07-20T06:56:44.191Z,99686.03
2018-07-20T06:59:14.496Z,99690.16
2018-07-20T07:01:44.472Z,99678.05
2018-07-20T07:04:14.928Z,99683.62
2018-07-20T07:06:45.229Z,99682.09
2018-07-20T07:09:15.423Z,99693.16
2018-07-20T07:11:45.351Z,99690.09
2018-07-20T07:14:15.559Z,99687.11
2018-07-20T07:16:45.737Z,99691.34
2018-07-20T07:19:15.849Z,99703.39
2018-07-20T07:21:46.079Z,99696.05
2018-07-20T17:52:00.150Z,99519.47
2018-07-20T17:54:31.352Z,99521.34
2018-07-20T17:57:01.707Z,99524.14
2018-07-20T17:59:31.947Z,99527.95
2018-07-20T18:02:02.170Z,99528.73
2018-07-20T18:04:33.329Z,99518.79
2018-07-20T18:07:03.341Z,99523.66
2018-07-20T18:09:33.604Z,99525.34
2018-07-20T18:12:03.622Z,99527.89
2018-07-20T18:14:34.024Z,99534.25
2018-07-20T18:17:04.254Z,99532.70
2018-07-20T18:19:34.486Z,99525.17
2018-07-20T18:22:04.824Z,99533.12
2018-07-20T18:24:35.888Z,99525.38
2018-07-20T18:27:06.165Z,99531.78
2018-07-20T18:29:36.257Z,99534.44
2018-07-20T18:32:06.652Z,99529.30
2018-07-20T18:34:37.183Z,99528.89
2018-07-20T18:37:07.382Z,99531.31
2018-07-20T18:39:37.420Z,99531.73
2018-07-20T18:42:07.607Z,99532.67
2018-07-20T18:44:37.955Z,99532.05
2018-07-20T18:47:08.381Z,99539.19
2018-07-20T18:49:38.584Z,99527.63
2018-07-20T18:52:10.681Z,99534.63
2018-07-20T18:54:40.936Z,99531.84
2018-07-20T18:57:11.120Z,99529.20
2018-07-20T18:59:41.129Z,99536.34
2018-07-20T19:02:12.116Z,99535.61
2018-07-20T19:04:42.240Z,99539.23
2018-07-20T19:07:12.380Z,99541.48
2018-07-20T19:09:42.342Z,99542.46
2018-07-20T19:12:12.600Z,99545.10
2018-07-20T19:14:42.809Z,99547.05
2018-07-20T19:17:13.025Z,99553.08
2018-07-20T19:19:43.363Z,99551.71
2018-07-20T19:22:13.581Z,99560.03
2018-07-20T19:24:44.689Z,99560.61
2018-07-20T19:27:14.917Z,99557.90
2018-07-20T19:29:45.163Z,99557.48
2018-07-20T19:32:15.489Z,99568.08
2018-07-20T19:34:45.665Z,99563.90
2018-07-20T19:37:15.672Z,99560.06
2018-07-20T19:39:45.771Z,99561.52
2018-07-20T19:42:16.837Z,99564.83
2018-07-20T19:44:47.208Z,99563.73
2018-07-20T19:47:17.090Z,99554.90
2018-07-20T19:49:47.279Z,99559.19
2018-07-20T19:52:17.339Z,99561.03
2018-07-20T19:54:47.560Z,99564.77
2018-07-20T19:57:17.701Z,99563.59
2018-07-20T19:59:49.009Z,99566.81
2018-07-20T20:02:19.341Z,99558.23
2018-07-20T20:04:49.431Z,99561.91
2018-07-20T20:07:20.924Z,99563.91
2018-07-20T20:09:51.053Z,99563.26
2018-07-20T20:12:21.095Z,99563.96
2018-07-20T20:14:51.236Z,99567.94
2018-07-20T20:17:21.374Z,99568.32
2018-07-20T20:19:51.695Z,99565.34
2018-07-20T20:22:22.111Z,99570.85
2018-07-20T20:24:52.102Z,99566.00
2018-07-20T20:27:22.351Z,99561.58
2018-07-20T20:29:52.271Z,99562.55
2018-07-20T20:32:22.341Z,99563.26
2018-07-20T20:34:52.610Z,99570.44
2018-07-20T20:37:22.511Z,99569.88
2018-07-20T20:39:52.889Z,99567.84
2018-07-20T20:42:23.274Z,99562.65
2018-07-20T20:44:53.345Z,99566.06
2018-07-20T20:47:23.384Z,99564.11
2018-07-20T20:49:53.691Z,99566.91
2018-07-20T20:52:23.917Z,99570.09
2018-07-20T20:54:54.129Z,99571.19
2018-07-20T20:57:24.331Z,99570.71
2018-07-20T20:59:54.512Z,99570.59
2018-07-20T21:02:24.923Z,99569.86
2018-07-20T21:04:55.026Z,99573.31
2018-07-20T21:07:25.105Z,99569.08
2018-07-20T21:09:55.203Z,99570.55
2018-07-20T21:12:25.645Z,99572.60
2018-07-20T21:14:56.011Z,99567.89
2018-07-20T21:17:26.005Z,99565.09
2018-07-20T21:19:56.008Z,99574.81
2018-07-20T21:22:26.220Z,99569.60
2018-07-20T21:24:56.336Z,99572.75
2018-07-20T21:27:26.276Z,99565.59
2018-07-20T21:29:56.451Z,99565.58
2018-07-20T21:32:27.600Z,99567.37
2018-07-20T21:34:57.592Z,99567.95
2018-07-20T21:37:27.553Z,99575.13
2018-07-20T21:39:57.707Z,99571.58
2018-07-20T21:42:27.913Z,99572.19
2018-07-20T21:44:58.055Z,99575.44
2018-07-20T21:47:28.246Z,99572.88
2018-07-20T21:49:58.416Z,99578.19
2018-07-20T21:52:28.589Z,99576.14
2018-07-20T21:54:58.830Z,99580.61
2018-07-20T21:57:29.071Z,99577.80
2018-07-20T21:59:59.023Z,99579.25
2018-07-20T22:02:29.400Z,99573.20
2018-07-20T22:04:59.608Z,99572.31
2018-07-20T22:07:30.835Z,99572.91
2018-07-20T22:10:01.106Z,99571.44
2018-07-20T22:12:31.276Z,99577.62
2018-07-20T22:15:01.657Z,99563.53
2018-07-20T22:17:31.869Z,99566.13
2018-07-20T22:20:02.056Z,99564.98
2018-07-20T22:22:32.137Z,99571.06
2018-07-20T22:25:03.492Z,99573.20
2018-07-20T22:27:33.783Z,99568.53
2018-07-20T22:30:04.070Z,99562.77
2018-07-20T22:32:34.285Z,99564.80
2018-07-20T22:35:04.503Z,99561.92
2018-07-20T22:37:34.504Z,99567.30
2018-07-20T22:40:04.735Z,99565.59
2018-07-20T22:42:35.905Z,99569.07
2018-07-20T22:45:06.190Z,99573.96
2018-07-20T22:47:36.126Z,99571.30
2018-07-20T22:50:07.248Z,99571.61
2018-07-20T22:52:37.388Z,99565.07
2018-07-20T22:55:07.492Z,99563.47
2018-07-20T22:57:37.460Z,99559.19
2018-07-20T23:00:07.366Z,99559.36
2018-07-20T23:02:37.483Z,99561.15
2018-07-20T23:05:07.515Z,99562.11
2018-07-20T23:07:37.553Z,99562.32
2018-07-20T23:10:07.447Z,99557.47
2018-07-20T23:12:37.598Z,99558.53
2018-07-20T23:15:07.986Z,99557.28
2018-07-20T23:17:39.267Z,99558.75
2018-07-20T23:20:09.264Z,99559.04
2018-07-20T23:22:39.618Z,99560.08
2018-07-20T23:25:09.774Z,99563.50
2018-07-20T23:27:41.041Z,99560.79
2018-07-20T23:30:11.013Z,99555.61
2018-07-20T23:32:41.186Z,99557.63
2018-07-20T23:35:11.368Z,99554.85
2018-07-20T23:37:42.275Z,99558.55
2018-07-20T23:40:12.287Z,99557.53
2018-07-20T23:42:43.258Z,99566.41
2018-07-20T23:45:13.357Z,99568.97
2018-07-20T23:47:43.516Z,99567.09
2018-07-20T23:50:13.649Z,99565.77
2018-07-20T23:52:43.558Z,99559.92
2018-07-20T23:55:13.909Z,99561.84
2018-07-20T23:57:44.032Z,99563.95
